• Join FlightAware (Why Join?)
  • Login
  • US Flag 
08:25PM EDT


 

Airport Tracker/Info


-or-


 

Live Flight TrackerFlight Track Log ✈ EZY2759 ✈ 08-Apr-2013 ✈ LIMC / MXP - LEBL / BCN

Flight Track Log - Related Links

Times and Time Zones

All times are in EDT time to prevent confusion due to time zone crossing. See the EZY2759 flight status page for this flight to view local times or setup timezone preferences in your user account.

Time Position Orientation Groundspeed Altitude Reporting Facility
EDT Latitude Longitude Course Direction KTS MPH feet Rate Location/Type
12:41AM 45.0927 7.8131 230° Southwest  Level Estimated
12:42AM 45.0435 7.7308 230° Southwest  Level Estimated
12:43AM 44.9942 7.6486 230° Southwest  Level Estimated
12:44AM 44.9448 7.5666 230° Southwest  Level Estimated
12:45AM 44.8954 7.4847 230° Southwest  Level Estimated
12:46AM 44.8459 7.4029 230° Southwest  Level Estimated
12:47AM 44.7963 7.3213 229° Southwest  Level Estimated
12:48AM 44.7467 7.2399 229° Southwest  Level Estimated
12:49AM 44.6970 7.1585 229° Southwest  Level Estimated
12:50AM 44.6473 7.0773 229° Southwest  Level Estimated
12:51AM 44.5975 6.9963 229° Southwest  Level Estimated
12:52AM 44.5477 6.9153 229° Southwest  Level Estimated
12:53AM 44.4978 6.8345 229° Southwest  Level Estimated
12:54AM 44.4478 6.7539 229° Southwest  Level Estimated
12:55AM 44.3926 6.6651 229° Southwest  Level Estimated
12:56AM 44.3374 6.5764 229° Southwest  Level Estimated
12:57AM 44.2820 6.4878 229° Southwest  Level Estimated
12:58AM 44.2266 6.3995 229° Southwest  Level Estimated
12:59AM 44.1711 6.3113 229° Southwest  Level Estimated
01:00AM 44.1156 6.2233 229° Southwest  Level Estimated
01:01AM 44.0600 6.1354 229° Southwest  Level Estimated
01:02AM 44.0043 6.0477 229° Southwest  Level Estimated
01:03AM 43.9485 5.9602 229° Southwest  Level Estimated
01:04AM 43.8927 5.8728 228° Southwest  Level Estimated
01:05AM 43.8368 5.7856 228° Southwest  Level Estimated
01:06AM 43.7809 5.6986 228° Southwest  Level Estimated
01:07AM 43.7249 5.6117 228° Southwest  Level Estimated
01:08AM 43.6688 5.5250 228° Southwest  Level Estimated
01:09AM 43.6126 5.4384 228° Southwest  Level Estimated
01:10AM 43.5564 5.3520 228° Southwest  Level Estimated
01:11AM 43.5001 5.2658 228° Southwest  Level Estimated
01:12AM 43.4438 5.1797 228° Southwest  Level Estimated
01:13AM 43.3874 5.0938 228° Southwest  Level Estimated
01:14AM 43.3309 5.0081 228° Southwest  Level Estimated
01:15AM 43.2744 4.9225 228° Southwest  Level Estimated
01:16AM 43.2178 4.8371 228° Southwest  Level Estimated
01:17AM 43.1611 4.7518 228° Southwest  Level Estimated
01:18AM 43.1044 4.6667 228° Southwest  Level Estimated
01:19AM 43.0476 4.5817 228° Southwest  Level Estimated
01:20AM 42.9908 4.4969 228° Southwest  Level Estimated
01:21AM 42.9339 4.4123 227° Southwest  Level Estimated
01:22AM 42.8769 4.3278 227° Southwest  Level Estimated
01:23AM 42.8199 4.2435 227° Southwest  Level Estimated
01:24AM 42.7627 4.1593 227° Southwest  Level Estimated
01:25AM 42.7056 4.0753 227° Southwest  Level Estimated
01:26AM 42.6484 3.9914 227° Southwest  Level Estimated
01:27AM 42.5911 3.9077 227° Southwest  Level Estimated
01:28AM 42.5337 3.8241 227° Southwest  Level Estimated
01:29AM 42.4763 3.7407 227° Southwest  Level Estimated
01:30AM 42.4189 3.6575 227° Southwest  Level Estimated
01:31AM 42.3614 3.5744 227° Southwest  Level Estimated
01:32AM 42.3038 3.4915 227° Southwest  Level Estimated
01:33AM 42.2490 3.4127 227° Southwest  Level Estimated
01:34AM 42.1941 3.3342 227° Southwest  Level Estimated
01:35AM 42.1392 3.2557 227° Southwest  Level Estimated
01:36AM 42.0843 3.1774 227° Southwest  Level Estimated
01:37AM 42.0293 3.0993 227° Southwest  Level Estimated
01:38AM 41.9742 3.0213 227° Southwest  Level Estimated
01:39AM 41.9191 2.9434 226° Southwest  Level Estimated
01:40AM 41.8639 2.8656 226° Southwest  Level Estimated
01:41AM 41.8087 2.7880 226° Southwest  Level Estimated
01:42AM 41.7534 2.7105 226° Southwest  Level Estimated
01:43AM 41.6981 2.6331 226° Southwest  Level Estimated
01:44AM 41.6427 2.5559 226° Southwest  Level Estimated
01:45AM 41.5873 2.4788 226° Southwest  Level Estimated
01:46AM 41.5318 2.4018 226° Southwest  Level Estimated
01:47AM 41.4763 2.3250 226° Southwest  Level Estimated
01:48AM 41.4207 2.2483 226° Southwest  Level Estimated
01:49AM 41.3651 2.1718 226° Southwest  Level Estimated
01:50AM 41.3094 2.0953 226° Southwest  Level Estimated
01:51AM 41.2971 2.0785 226° Southwest  Level Estimated
01:52AM 41.2971 2.0785 124° Southeast  Level Estimated
01:53AM 41.2971 2.0785 124° Southeast  Level Estimated
01:54AM 41.2971 2.0785 124° Southeast  Level Estimated
01:55AM 41.2971 2.0785 124° Southeast  Level Estimated
01:56AM 41.2971 2.0785 124° Southeast  Level Estimated
01:57AM 41.2971 2.0785 124° Southeast  Level Estimated
01:58AM 41.2971 2.0785 124° Southeast  Level Estimated
01:59AM 41.2971 2.0785 124° Southeast  Level Estimated
02:00AM 41.2971 2.0785 124° Southeast  Level Estimated
02:01AM 41.2971 2.0785 124° Southeast  Level Estimated
02:02AM 41.2971 2.0785 124° Southeast  Level Estimated
02:03AM 41.2971 2.0785 124° Southeast  Level Estimated
02:04AM 41.2971 2.0785 124° Southeast  Level Estimated
02:05AM 41.2971 2.0785 124° Southeast  Level Estimated
02:06AM 41.2971 2.0785 124° Southeast  Level Estimated
02:07AM 41.2971 2.0785 124° Southeast  Level Estimated